Wetterdaten: Woche 21.02.11 - 27.02.11 (KW8)
Datum Zeit Temp. Innen Temp. Aussen UV X Diff Temp. Feuchte Inne Feuchte Auss Sonnenschein Luftdruck Regen ab 0,1 Wind Sonnenschein T Regendauer Windben
21.02.2011 00:00 12,2 C 0,4 C 0,0 UV-I 0,0 C 43 % 70 % 0 % 1017,1 hPa 0,0 l/m 6,0 km/h (2 Bft) 0,00 h 0,00 h 7,6 km/h (2 Bft)
21.02.2011 01:00 12,2 C 0,2 C 0,0 UV-I 0,0 C 42 % 70 % 0 % 1017,9 hPa 0,0 l/m 5,8 km/h (2 Bft) 0,00 h 0,00 h 7,4 km/h (2 Bft)
21.02.2011 02:00 12,1 C -0,1 C 0,0 UV-I 0,0 C 42 % 70 % 0 % 1017,9 hPa 0,0 l/m 6,4 km/h (2 Bft) 0,00 h 0,00 h 8,0 km/h (2 Bft)
21.02.2011 03:00 12,0 C -0,4 C 0,0 UV-I 0,0 C 42 % 70 % 0 % 1017,9 hPa 0,0 l/m 7,2 km/h (2 Bft) 0,00 h 0,00 h 8,3 km/h (2 Bft)
21.02.2011 04:00 12,0 C -0,6 C 0,0 UV-I 0,0 C 42 % 70 % 0 % 1017,7 hPa 0,0 l/m 5,8 km/h (1 Bft) 0,00 h 0,00 h 6,3 km/h (2 Bft)
21.02.2011 05:00 11,9 C -0,8 C 0,0 UV-I 0,0 C 42 % 71 % 0 % 1017,8 hPa 0,0 l/m 6,9 km/h (2 Bft) 0,00 h 0,00 h 7,9 km/h (2 Bft)
21.02.2011 06:00 11,8 C -1,1 C 0,0 UV-I 0,0 C 41 % 70 % 0 % 1017,8 hPa 0,0 l/m 7,1 km/h (2 Bft) 0,00 h 0,00 h 7,4 km/h (2 Bft)
21.02.2011 07:00 11,7 C -1,5 C 0,0 UV-I 0,0 C 41 % 71 % 0 % 1017,8 hPa 0,0 l/m 5,2 km/h (1 Bft) 0,00 h 0,00 h 6,0 km/h (2 Bft)
21.02.2011 08:00 11,5 C -1,8 C 0,0 UV-I 0,0 C 41 % 72 % 0 % 1017,7 hPa 0,0 l/m 4,4 km/h (1 Bft) 0,00 h 0,00 h 6,3 km/h (2 Bft)
21.02.2011 09:00 11,5 C -1,4 C 0,0 UV-I 2,9 C 41 % 71 % 76 % 1017,7 hPa 0,0 l/m 6,7 km/h (2 Bft) 0,77 h 0,00 h 7,4 km/h (2 Bft)
21.02.2011 10:00 11,6 C -0,4 C 0,0 UV-I 5,5 C 41 % 69 % 100 % 1017,7 hPa 0,0 l/m 7,4 km/h (2 Bft) 1,00 h 0,00 h 8,5 km/h (2 Bft)
21.02.2011 11:00 11,7 C 0,6 C 0,0 UV-I 5,6 C 40 % 65 % 100 % 1017,4 hPa 0,0 l/m 9,3 km/h (2 Bft) 1,00 h 0,00 h 8,6 km/h (2 Bft)
21.02.2011 12:00 12,1 C 1,8 C 0,0 UV-I 5,6 C 40 % 63 % 100 % 1017,3 hPa 0,0 l/m 9,0 km/h (2 Bft) 1,00 h 0,00 h 9,0 km/h (2 Bft)
21.02.2011 13:00 13,4 C 3,0 C 0,0 UV-I 5,6 C 38 % 59 % 100 % 1019,4 hPa 0,0 l/m 9,1 km/h (2 Bft) 1,00 h 0,00 h 11,2 km/h (2 Bft)
21.02.2011 14:00 15,0 C 3,5 C 0,0 UV-I 4,5 C 35 % 57 % 100 % 1019,2 hPa 0,0 l/m 10,2 km/h (2 Bft) 1,00 h 0,00 h 11,5 km/h (2 Bft)
21.02.2011 15:00 16,0 C 4,0 C 0,0 UV-I 3,6 C 33 % 56 % 99 % 1019,0 hPa 0,0 l/m 9,2 km/h (2 Bft) 1,00 h 0,00 h 10,4 km/h (2 Bft)
21.02.2011 16:00 16,4 C 3,3 C 0,0 UV-I 2,4 C 33 % 57 % 68 % 1018,3 hPa 0,0 l/m 9,2 km/h (2 Bft) 0,80 h 0,00 h 10,3 km/h (2 Bft)
21.02.2011 17:00 15,4 C 1,6 C 0,0 UV-I 0,0 C 33 % 62 % 0 % 1016,5 hPa 0,0 l/m 5,9 km/h (2 Bft) 0,00 h 0,00 h 5,5 km/h (1 Bft)
21.02.2011 18:00 13,9 C 0,4 C 0,0 UV-I 0,0 C 35 % 66 % 0 % 1015,6 hPa 0,0 l/m 3,3 km/h (1 Bft) 0,00 h 0,00 h 3,5 km/h (1 Bft)
21.02.2011 19:00 12,9 C -0,4 C 0,0 UV-I 0,0 C 37 % 70 % 0 % 1015,5 hPa 0,0 l/m 1,1 km/h (1 Bft) 0,00 h 0,00 h 1,7 km/h (1 Bft)
21.02.2011 20:00 12,3 C -0,6 C 0,0 UV-I 0,0 C 38 % 69 % 0 % 1015,3 hPa 0,0 l/m 3,9 km/h (1 Bft) 0,00 h 0,00 h 5,2 km/h (1 Bft)
21.02.2011 21:00 11,9 C -1,0 C 0,0 UV-I 0,0 C 38 % 68 % 0 % 1015,3 hPa 0,0 l/m 5,2 km/h (1 Bft) 0,00 h 0,00 h 7,0 km/h (2 Bft)
21.02.2011 22:00 11,7 C -1,4 C 0,0 UV-I 0,0 C 38 % 67 % 0 % 1015,3 hPa 0,0 l/m 5,0 km/h (1 Bft) 0,00 h 0,00 h 5,7 km/h (1 Bft)
21.02.2011 23:00 11,6 C -1,8 C 0,0 UV-I 0,0 C 38 % 67 % 0 % 1015,5 hPa 0,0 l/m 4,5 km/h (1 Bft) 0,00 h 0,00 h 6,2 km/h (2 Bft)
22.02.2011 00:00 11,5 C -2,2 C 0,0 UV-I 0,0 C 39 % 68 % 0 % 1015,5 hPa 0,0 l/m 4,2 km/h (1 Bft) 0,00 h 0,00 h 5,9 km/h (2 Bft)
22.02.2011 01:00 11,4 C -2,5 C 0,0 UV-I 0,0 C 39 % 70 % 0 % 1015,6 hPa 0,0 l/m 3,5 km/h (1 Bft) 0,00 h 0,00 h 4,1 km/h (1 Bft)
22.02.2011 02:00 11,3 C -3,0 C 0,0 UV-I 0,0 C 39 % 73 % 0 % 1015,5 hPa 0,0 l/m 3,2 km/h (1 Bft) 0,00 h 0,00 h 3,2 km/h (1 Bft)
22.02.2011 03:00 11,2 C -3,5 C 0,0 UV-I 0,0 C 40 % 75 % 0 % 1015,2 hPa 0,0 l/m 2,3 km/h (1 Bft) 0,00 h 0,00 h 2,7 km/h (1 Bft)
22.02.2011 04:00 11,0 C -4,1 C 0,0 UV-I 0,0 C 40 % 77 % 0 % 1015,5 hPa 0,0 l/m 0,8 km/h (0 Bft) 0,00 h 0,00 h 0,9 km/h (0 Bft)
22.02.2011 05:00 10,8 C -5,0 C 0,0 UV-I 0,0 C 40 % 79 % 0 % 1015,6 hPa 0,0 l/m 0,0 km/h (0 Bft) 0,00 h 0,00 h 0,0 km/h (0 Bft)
22.02.2011 06:00 10,7 C -5,4 C 0,0 UV-I 0,0 C 40 % 81 % 0 % 1015,9 hPa 0,0 l/m 0,0 km/h (0 Bft) 0,00 h 0,00 h 0,0 km/h (0 Bft)
22.02.2011 07:00 10,5 C -5,5 C 0,0 UV-I 0,0 C 40 % 82 % 0 % 1016,1 hPa 0,0 l/m 0,0 km/h (0 Bft) 0,00 h 0,00 h 0,0 km/h (0 Bft)
22.02.2011 08:00 10,4 C -5,1 C 0,0 UV-I 0,0 C 40 % 82 % 0 % 1016,7 hPa 0,0 l/m 1,7 km/h (1 Bft) 0,00 h 0,00 h 2,5 km/h (1 Bft)
22.02.2011 09:00 10,5 C -3,9 C 0,0 UV-I 4,6 C 40 % 80 % 92 % 1016,8 hPa 0,0 l/m 3,9 km/h (1 Bft) 0,93 h 0,00 h 5,4 km/h (1 Bft)
22.02.2011 10:00 10,7 C -1,7 C 0,0 UV-I 7,0 C 39 % 72 % 100 % 1017,3 hPa 0,0 l/m 4,8 km/h (1 Bft) 1,00 h 0,00 h 6,3 km/h (2 Bft)
22.02.2011 11:00 10,9 C -0,0 C 0,0 UV-I 7,0 C 39 % 63 % 100 % 1017,6 hPa 0,0 l/m 5,3 km/h (1 Bft) 1,00 h 0,00 h 5,4 km/h (1 Bft)
22.02.2011 12:00 11,4 C 1,4 C 0,0 UV-I 7,6 C 39 % 58 % 100 % 1018,1 hPa 0,0 l/m 4,6 km/h (1 Bft) 1,00 h 0,00 h 5,8 km/h (2 Bft)
22.02.2011 13:00 12,9 C 2,7 C 0,0 UV-I 7,3 C 37 % 53 % 100 % 1020,7 hPa 0,0 l/m 4,4 km/h (1 Bft) 1,00 h 0,00 h 4,8 km/h (1 Bft)
22.02.2011 14:00 14,6 C 3,4 C 0,0 UV-I 6,9 C 33 % 50 % 100 % 1021,2 hPa 0,0 l/m 4,8 km/h (1 Bft) 1,00 h 0,00 h 4,5 km/h (1 Bft)
22.02.2011 15:00 15,7 C 4,0 C 0,0 UV-I 5,9 C 31 % 47 % 100 % 1022,0 hPa 0,0 l/m 3,6 km/h (1 Bft) 1,00 h 0,00 h 3,2 km/h (1 Bft)
22.02.2011 16:00 16,2 C 3,8 C 0,0 UV-I 4,8 C 31 % 47 % 94 % 1021,5 hPa 0,0 l/m 1,3 km/h (1 Bft) 0,97 h 0,00 h 1,9 km/h (1 Bft)
22.02.2011 17:00 15,3 C 2,4 C 0,0 UV-I 0,0 C 31 % 51 % 1 % 1020,5 hPa 0,0 l/m 0,2 km/h (0 Bft) 0,00 h 0,00 h 0,1 km/h (0 Bft)
22.02.2011 18:00 13,9 C 0,6 C 0,0 UV-I 0,0 C 33 % 57 % 0 % 1020,0 hPa 0,0 l/m 0,0 km/h (0 Bft) 0,00 h 0,00 h 0,0 km/h (0 Bft)
22.02.2011 19:00 12,7 C -0,8 C 0,0 UV-I 0,0 C 35 % 63 % 0 % 1020,2 hPa 0,0 l/m 0,0 km/h (0 Bft) 0,00 h 0,00 h 0,1 km/h (0 Bft)
22.02.2011 20:00 12,0 C -1,2 C 0,0 UV-I 0,0 C 36 % 67 % 0 % 1020,6 hPa 0,0 l/m 0,0 km/h (0 Bft) 0,00 h 0,00 h 0,1 km/h (0 Bft)
22.02.2011 21:00 11,6 C -1,8 C 0,0 UV-I 0,0 C 37 % 70 % 0 % 1021,0 hPa 0,0 l/m 0,0 km/h (0 Bft) 0,00 h 0,00 h 0,0 km/h (0 Bft)
22.02.2011 22:00 11,4 C -1,4 C 0,0 UV-I 0,0 C 38 % 73 % 0 % 1021,3 hPa 0,0 l/m 0,9 km/h (0 Bft) 0,00 h 0,00 h 2,0 km/h (1 Bft)
22.02.2011 23:00 11,4 C -0,6 C 0,0 UV-I 0,0 C 38 % 70 % 0 % 1021,5 hPa 0,0 l/m 5,8 km/h (2 Bft) 0,00 h 0,00 h 8,1 km/h (2 Bft)
23.02.2011 00:00 11,2 C -0,6 C 0,0 UV-I 0,0 C 37 % 67 % 0 % 1021,8 hPa 0,0 l/m 7,1 km/h (2 Bft) 0,00 h 0,00 h 7,6 km/h (2 Bft)
23.02.2011 01:00 11,1 C -1,0 C 0,0 UV-I 0,0 C 37 % 66 % 0 % 1022,3 hPa 0,0 l/m 6,3 km/h (2 Bft) 0,00 h 0,00 h 7,2 km/h (2 Bft)
23.02.2011 02:00 11,2 C -1,5 C 0,0 UV-I 0,0 C 37 % 65 % 0 % 1022,6 hPa 0,0 l/m 7,8 km/h (2 Bft) 0,00 h 0,00 h 8,7 km/h (2 Bft)
23.02.2011 03:00 11,1 C -2,0 C 0,0 UV-I 0,0 C 36 % 66 % 0 % 1022,8 hPa 0,0 l/m 9,4 km/h (2 Bft) 0,00 h 0,00 h 9,7 km/h (2 Bft)
23.02.2011 04:00 10,9 C -2,5 C 0,0 UV-I 0,0 C 36 % 68 % 0 % 1022,7 hPa 0,0 l/m 9,0 km/h (2 Bft) 0,00 h 0,00 h 10,1 km/h (2 Bft)
23.02.2011 05:00 10,8 C -2,9 C 0,0 UV-I 0,0 C 37 % 70 % 0 % 1022,7 hPa 0,0 l/m 8,4 km/h (2 Bft) 0,00 h 0,00 h 9,1 km/h (2 Bft)
23.02.2011 06:00 10,6 C -3,1 C 0,0 UV-I 0,0 C 37 % 72 % 0 % 1022,8 hPa 0,0 l/m 7,5 km/h (2 Bft) 0,00 h 0,00 h 7,6 km/h (2 Bft)
23.02.2011 07:00 10,5 C -3,2 C 0,0 UV-I 0,0 C 37 % 73 % 0 % 1023,0 hPa 0,0 l/m 7,7 km/h (2 Bft) 0,00 h 0,00 h 8,7 km/h (2 Bft)
23.02.2011 08:00 10,4 C -2,9 C 0,0 UV-I 0,0 C 37 % 73 % 0 % 1023,1 hPa 0,0 l/m 10,5 km/h (2 Bft) 0,00 h 0,00 h 12,0 km/h (2 Bft)
23.02.2011 09:00 10,5 C -2,4 C 0,0 UV-I 0,0 C 37 % 73 % 0 % 1023,6 hPa 0,0 l/m 10,0 km/h (2 Bft) 0,00 h 0,00 h 10,7 km/h (2 Bft)
23.02.2011 10:00 10,7 C -1,4 C 0,0 UV-I 0,1 C 37 % 72 % 2 % 1023,7 hPa 0,0 l/m 10,2 km/h (2 Bft) 0,00 h 0,00 h 10,9 km/h (2 Bft)
23.02.2011 11:00 11,0 C -0,0 C 0,0 UV-I 0,3 C 37 % 69 % 9 % 1024,2 hPa 0,0 l/m 10,8 km/h (2 Bft) 0,00 h 0,00 h 12,5 km/h (3 Bft)
23.02.2011 12:00 11,3 C 1,1 C 0,0 UV-I 0,1 C 36 % 64 % 3 % 1024,1 hPa 0,0 l/m 10,9 km/h (2 Bft) 0,00 h 0,00 h 11,4 km/h (2 Bft)
23.02.2011 13:00 11,5 C 1,9 C 0,0 UV-I 0,1 C 36 % 61 % 3 % 1023,6 hPa 0,0 l/m 11,7 km/h (2 Bft) 0,00 h 0,00 h 14,0 km/h (3 Bft)
23.02.2011 14:00 11,9 C 2,8 C 0,0 UV-I 0,3 C 35 % 57 % 7 % 1023,2 hPa 0,0 l/m 10,7 km/h (2 Bft) 0,00 h 0,00 h 11,8 km/h (2 Bft)
23.02.2011 15:00 11,9 C 3,5 C 0,0 UV-I 0,3 C 35 % 54 % 8 % 1022,9 hPa 0,0 l/m 7,9 km/h (2 Bft) 0,00 h 0,00 h 10,0 km/h (2 Bft)
23.02.2011 16:00 12,1 C 3,6 C 0,0 UV-I 0,1 C 34 % 54 % 2 % 1022,3 hPa 0,0 l/m 9,1 km/h (2 Bft) 0,00 h 0,00 h 11,0 km/h (2 Bft)
23.02.2011 17:00 11,8 C 3,3 C 0,0 UV-I 0,0 C 35 % 53 % 0 % 1021,7 hPa 0,0 l/m 9,1 km/h (2 Bft) 0,00 h 0,00 h 10,3 km/h (2 Bft)
23.02.2011 18:00 11,6 C 3,1 C 0,0 UV-I 0,0 C 35 % 53 % 0 % 1021,5 hPa 0,0 l/m 11,4 km/h (2 Bft) 0,00 h 0,00 h 11,8 km/h (2 Bft)
23.02.2011 19:00 11,3 C 3,1 C 0,0 UV-I 0,0 C 35 % 51 % 0 % 1021,3 hPa 0,0 l/m 12,2 km/h (3 Bft) 0,00 h 0,00 h 13,1 km/h (3 Bft)
23.02.2011 20:00 11,1 C 2,9 C 0,0 UV-I 0,0 C 34 % 51 % 0 % 1021,4 hPa 0,0 l/m 11,5 km/h (2 Bft) 0,00 h 0,00 h 12,3 km/h (3 Bft)
23.02.2011 21:00 11,2 C 2,7 C 0,0 UV-I 0,0 C 35 % 53 % 0 % 1021,1 hPa 0,0 l/m 10,5 km/h (2 Bft) 0,00 h 0,00 h 11,1 km/h (2 Bft)
23.02.2011 22:00 11,2 C 2,5 C 0,0 UV-I 0,0 C 35 % 56 % 0 % 1021,3 hPa 0,0 l/m 8,0 km/h (2 Bft) 0,00 h 0,00 h 9,6 km/h (2 Bft)
23.02.2011 23:00 11,2 C 2,3 C 0,0 UV-I 0,0 C 36 % 60 % 0 % 1021,3 hPa 0,0 l/m 5,5 km/h (1 Bft) 0,00 h 0,00 h 7,1 km/h (2 Bft)
24.02.2011 00:00 11,1 C 2,0 C 0,0 UV-I 0,0 C 37 % 66 % 0 % 1020,7 hPa 0,0 l/m 6,9 km/h (2 Bft) 0,00 h 0,00 h 9,3 km/h (2 Bft)
24.02.2011 01:00 11,1 C 1,8 C 0,0 UV-I 0,0 C 40 % 78 % 0 % 1020,6 hPa 0,0 l/m 10,7 km/h (2 Bft) 0,00 h 0,00 h 11,7 km/h (2 Bft)
24.02.2011 02:00 11,2 C 1,1 C 0,0 UV-I 0,0 C 43 % 85 % 0 % 1020,2 hPa 0,0 l/m 8,9 km/h (2 Bft) 0,00 h 0,00 h 9,6 km/h (2 Bft)
24.02.2011 03:00 11,2 C 0,5 C 0,0 UV-I 0,0 C 43 % 88 % 0 % 1020,1 hPa 0,0 l/m 11,3 km/h (2 Bft) 0,00 h 0,00 h 15,2 km/h (3 Bft)
24.02.2011 04:00 11,1 C 0,5 C 0,0 UV-I 0,0 C 44 % 89 % 0 % 1019,7 hPa 0,0 l/m 11,5 km/h (2 Bft) 0,00 h 0,00 h 12,7 km/h (3 Bft)
24.02.2011 05:00 11,0 C 0,5 C 0,0 UV-I 0,0 C 45 % 91 % 0 % 1019,4 hPa 0,2 l/m 12,3 km/h (3 Bft) 0,00 h 0,00 h 14,1 km/h (3 Bft)
24.02.2011 06:00 11,0 C 0,7 C 0,0 UV-I 0,0 C 46 % 91 % 0 % 1019,5 hPa 0,6 l/m 10,5 km/h (2 Bft) 0,00 h 0,00 h 11,1 km/h (2 Bft)
24.02.2011 07:00 11,0 C 0,8 C 0,0 UV-I 0,0 C 47 % 92 % 0 % 1019,9 hPa 0,4 l/m 9,9 km/h (2 Bft) 0,00 h 0,00 h 10,8 km/h (2 Bft)
24.02.2011 08:00 11,0 C 0,9 C 0,0 UV-I 0,0 C 47 % 92 % 0 % 1020,4 hPa 0,6 l/m 10,0 km/h (2 Bft) 0,00 h 0,00 h 11,2 km/h (2 Bft)
24.02.2011 09:00 11,0 C 1,2 C 0,0 UV-I 0,0 C 48 % 93 % 0 % 1020,6 hPa 1,0 l/m 8,5 km/h (2 Bft) 0,00 h 0,00 h 8,1 km/h (2 Bft)
24.02.2011 10:00 11,2 C 1,4 C 0,0 UV-I 0,0 C 48 % 93 % 0 % 1021,1 hPa 0,9 l/m 8,3 km/h (2 Bft) 0,00 h 0,00 h 8,5 km/h (2 Bft)
24.02.2011 11:00 11,2 C 1,7 C 0,0 UV-I 0,0 C 48 % 93 % 0 % 1021,6 hPa 0,3 l/m 7,8 km/h (2 Bft) 0,00 h 0,00 h 8,9 km/h (2 Bft)
24.02.2011 12:00 11,3 C 2,0 C 0,0 UV-I 0,0 C 49 % 93 % 0 % 1022,0 hPa 0,0 l/m 8,0 km/h (2 Bft) 0,00 h 0,00 h 9,5 km/h (2 Bft)
24.02.2011 13:00 11,4 C 2,3 C 0,0 UV-I 0,0 C 49 % 93 % 0 % 1022,2 hPa 0,4 l/m 7,8 km/h (2 Bft) 0,00 h 0,00 h 9,1 km/h (2 Bft)
24.02.2011 14:00 11,3 C 2,6 C 0,0 UV-I 0,0 C 50 % 93 % 0 % 1022,4 hPa 0,9 l/m 8,6 km/h (2 Bft) 0,00 h 0,00 h 8,7 km/h (2 Bft)
24.02.2011 15:00 11,5 C 2,9 C 0,0 UV-I 0,0 C 50 % 93 % 0 % 1022,8 hPa 0,4 l/m 7,7 km/h (2 Bft) 0,00 h 0,00 h 8,2 km/h (2 Bft)
24.02.2011 16:00 11,5 C 2,9 C 0,0 UV-I 0,0 C 51 % 93 % 0 % 1023,3 hPa 0,1 l/m 8,4 km/h (2 Bft) 0,00 h 0,00 h 9,1 km/h (2 Bft)
24.02.2011 17:00 11,6 C 3,0 C 0,0 UV-I 0,0 C 51 % 94 % 0 % 1023,7 hPa 0,0 l/m 7,2 km/h (2 Bft) 0,00 h 0,00 h 8,4 km/h (2 Bft)
24.02.2011 18:00 11,6 C 3,1 C 0,0 UV-I 0,0 C 52 % 94 % 0 % 1024,5 hPa 0,2 l/m 6,2 km/h (2 Bft) 0,00 h 0,00 h 6,9 km/h (2 Bft)
24.02.2011 19:00 11,5 C 3,1 C 0,0 UV-I 0,0 C 53 % 94 % 0 % 1025,4 hPa 0,2 l/m 5,8 km/h (2 Bft) 0,00 h 0,00 h 6,0 km/h (2 Bft)
24.02.2011 20:00 11,5 C 3,2 C 0,0 UV-I 0,0 C 53 % 94 % 0 % 1025,6 hPa 0,2 l/m 5,2 km/h (1 Bft) 0,00 h 0,00 h 6,1 km/h (2 Bft)
24.02.2011 21:00 11,4 C 3,2 C 0,0 UV-I 0,0 C 54 % 94 % 0 % 1025,9 hPa 0,0 l/m 7,8 km/h (2 Bft) 0,00 h 0,00 h 8,3 km/h (2 Bft)
24.02.2011 22:00 11,4 C 3,2 C 0,0 UV-I 0,0 C 54 % 94 % 0 % 1026,1 hPa 0,0 l/m 5,7 km/h (1 Bft) 0,00 h 0,00 h 5,3 km/h (1 Bft)
24.02.2011 23:00 11,5 C 3,1 C 0,0 UV-I 0,0 C 54 % 94 % 0 % 1026,4 hPa 0,0 l/m 4,6 km/h (1 Bft) 0,00 h 0,00 h 5,6 km/h (1 Bft)
25.02.2011 00:00 11,6 C 3,1 C 0,0 UV-I 0,0 C 54 % 94 % 0 % 1026,7 hPa 0,0 l/m 5,6 km/h (1 Bft) 0,00 h 0,00 h 6,2 km/h (2 Bft)
25.02.2011 01:00 11,4 C 3,1 C 0,0 UV-I 0,0 C 54 % 95 % 0 % 1026,8 hPa 0,0 l/m 6,7 km/h (2 Bft) 0,00 h 0,00 h 6,8 km/h (2 Bft)
25.02.2011 02:00 11,6 C 3,2 C 0,0 UV-I 0,0 C 54 % 95 % 0 % 1026,8 hPa 0,1 l/m 4,9 km/h (1 Bft) 0,00 h 0,00 h 5,5 km/h (1 Bft)
25.02.2011 03:00 11,6 C 3,2 C 0,0 UV-I 0,0 C 54 % 95 % 0 % 1026,9 hPa 0,0 l/m 5,1 km/h (1 Bft) 0,00 h 0,00 h 6,8 km/h (2 Bft)
25.02.2011 04:00 11,6 C 3,1 C 0,0 UV-I 0,0 C 55 % 95 % 0 % 1027,1 hPa 0,0 l/m 6,6 km/h (2 Bft) 0,00 h 0,00 h 6,9 km/h (2 Bft)
25.02.2011 05:00 11,6 C 3,2 C 0,0 UV-I 0,0 C 55 % 95 % 0 % 1027,3 hPa 0,0 l/m 6,8 km/h (2 Bft) 0,00 h 0,00 h 7,8 km/h (2 Bft)
25.02.2011 06:00 11,6 C 3,2 C 0,0 UV-I 0,0 C 55 % 95 % 0 % 1027,3 hPa 0,0 l/m 7,9 km/h (2 Bft) 0,00 h 0,00 h 9,2 km/h (2 Bft)
25.02.2011 07:00 11,5 C 3,3 C 0,0 UV-I 0,0 C 56 % 95 % 0 % 1027,3 hPa 0,0 l/m 8,2 km/h (2 Bft) 0,00 h 0,00 h 9,3 km/h (2 Bft)
25.02.2011 08:00 11,5 C 3,3 C 0,0 UV-I 0,0 C 56 % 95 % 0 % 1027,9 hPa 0,1 l/m 9,3 km/h (2 Bft) 0,00 h 0,00 h 10,0 km/h (2 Bft)
25.02.2011 09:00 11,5 C 3,6 C 0,0 UV-I 0,0 C 56 % 95 % 0 % 1028,1 hPa 0,0 l/m 8,5 km/h (2 Bft) 0,00 h 0,00 h 9,7 km/h (2 Bft)
25.02.2011 10:00 11,6 C 4,0 C 0,0 UV-I 0,0 C 57 % 95 % 0 % 1027,8 hPa 0,0 l/m 8,9 km/h (2 Bft) 0,00 h 0,00 h 9,8 km/h (2 Bft)
25.02.2011 11:00 11,8 C 4,6 C 0,0 UV-I 0,5 C 57 % 95 % 15 % 1027,8 hPa 0,1 l/m 7,0 km/h (2 Bft) 0,00 h 0,00 h 8,1 km/h (2 Bft)
25.02.2011 12:00 12,1 C 5,6 C 0,0 UV-I 1,3 C 57 % 95 % 36 % 1027,6 hPa 0,0 l/m 8,6 km/h (2 Bft) 0,00 h 0,00 h 9,4 km/h (2 Bft)
25.02.2011 13:00 12,4 C 6,3 C 0,0 UV-I 1,4 C 57 % 96 % 39 % 1027,8 hPa 0,0 l/m 4,7 km/h (1 Bft) 0,00 h 0,00 h 5,2 km/h (1 Bft)
25.02.2011 14:00 12,7 C 6,8 C 0,0 UV-I 0,7 C 56 % 95 % 21 % 1028,0 hPa 0,0 l/m 1,7 km/h (1 Bft) 0,00 h 0,00 h 2,5 km/h (1 Bft)
25.02.2011 15:00 12,7 C 6,8 C 0,0 UV-I 0,1 C 56 % 95 % 2 % 1027,7 hPa 0,0 l/m 4,7 km/h (1 Bft) 0,00 h 0,00 h 5,4 km/h (1 Bft)
25.02.2011 16:00 12,6 C 6,9 C 0,0 UV-I 0,0 C 57 % 94 % 0 % 1027,1 hPa 0,0 l/m 4,6 km/h (1 Bft) 0,00 h 0,00 h 5,1 km/h (1 Bft)
25.02.2011 17:00 12,6 C 7,0 C 0,0 UV-I 0,0 C 57 % 94 % 0 % 1027,1 hPa 0,0 l/m 1,5 km/h (1 Bft) 0,00 h 0,00 h 1,9 km/h (1 Bft)
25.02.2011 18:00 12,6 C 6,9 C 0,0 UV-I 0,0 C 57 % 94 % 0 % 1026,8 hPa 0,0 l/m 1,0 km/h (0 Bft) 0,00 h 0,00 h 1,1 km/h (1 Bft)
25.02.2011 19:00 12,6 C 6,8 C 0,0 UV-I 0,0 C 58 % 94 % 0 % 1027,0 hPa 0,0 l/m 2,3 km/h (1 Bft) 0,00 h 0,00 h 3,1 km/h (1 Bft)
25.02.2011 20:00 12,5 C 6,3 C 0,0 UV-I 0,0 C 58 % 94 % 0 % 1026,3 hPa 0,0 l/m 5,5 km/h (1 Bft) 0,00 h 0,00 h 5,8 km/h (2 Bft)
25.02.2011 21:00 12,4 C 5,9 C 0,0 UV-I 0,0 C 58 % 94 % 0 % 1025,7 hPa 0,0 l/m 5,0 km/h (1 Bft) 0,00 h 0,00 h 5,7 km/h (1 Bft)
25.02.2011 22:00 12,4 C 5,7 C 0,0 UV-I 0,0 C 58 % 94 % 0 % 1025,0 hPa 0,0 l/m 3,6 km/h (1 Bft) 0,00 h 0,00 h 4,5 km/h (1 Bft)
25.02.2011 23:00 12,4 C 5,4 C 0,0 UV-I 0,0 C 58 % 94 % 0 % 1024,6 hPa 0,0 l/m 4,7 km/h (1 Bft) 0,00 h 0,00 h 5,7 km/h (1 Bft)
26.02.2011 00:00 12,4 C 5,1 C 0,0 UV-I 0,0 C 58 % 94 % 0 % 1024,3 hPa 0,0 l/m 5,2 km/h (1 Bft) 0,00 h 0,00 h 6,0 km/h (2 Bft)
26.02.2011 01:00 12,4 C 5,4 C 0,0 UV-I 0,0 C 58 % 94 % 0 % 1023,9 hPa 0,0 l/m 6,3 km/h (2 Bft) 0,00 h 0,00 h 7,9 km/h (2 Bft)
26.02.2011 02:00 12,4 C 5,5 C 0,0 UV-I 0,0 C 58 % 93 % 0 % 1022,9 hPa 0,0 l/m 6,6 km/h (2 Bft) 0,00 h 0,00 h 8,5 km/h (2 Bft)
26.02.2011 03:00 12,3 C 5,5 C 0,0 UV-I 0,0 C 57 % 93 % 0 % 1021,6 hPa 0,0 l/m 6,9 km/h (2 Bft) 0,00 h 0,00 h 8,2 km/h (2 Bft)
26.02.2011 04:00 12,4 C 5,5 C 0,0 UV-I 0,0 C 57 % 93 % 0 % 1020,9 hPa 0,0 l/m 7,2 km/h (2 Bft) 0,00 h 0,00 h 6,9 km/h (2 Bft)
26.02.2011 05:00 12,4 C 5,5 C 0,0 UV-I 0,0 C 57 % 93 % 0 % 1020,3 hPa 0,0 l/m 2,7 km/h (1 Bft) 0,00 h 0,00 h 3,6 km/h (1 Bft)
26.02.2011 06:00 12,3 C 5,5 C 0,0 UV-I 0,0 C 57 % 93 % 0 % 1019,1 hPa 0,0 l/m 7,3 km/h (2 Bft) 0,00 h 0,00 h 7,8 km/h (2 Bft)
26.02.2011 07:00 12,3 C 5,6 C 0,0 UV-I 0,0 C 57 % 93 % 0 % 1018,2 hPa 0,0 l/m 8,5 km/h (2 Bft) 0,00 h 0,00 h 9,7 km/h (2 Bft)
26.02.2011 08:00 12,3 C 5,8 C 0,0 UV-I 0,0 C 58 % 92 % 0 % 1018,1 hPa 0,0 l/m 9,5 km/h (2 Bft) 0,00 h 0,00 h 10,5 km/h (2 Bft)
26.02.2011 09:00 12,5 C 6,2 C 0,0 UV-I 0,1 C 58 % 92 % 3 % 1017,4 hPa 0,0 l/m 7,5 km/h (2 Bft) 0,00 h 0,00 h 9,0 km/h (2 Bft)
26.02.2011 10:00 12,7 C 6,8 C 0,0 UV-I 0,2 C 57 % 90 % 6 % 1016,5 hPa 0,0 l/m 11,9 km/h (2 Bft) 0,00 h 0,00 h 12,5 km/h (3 Bft)
26.02.2011 11:00 12,8 C 7,3 C 0,0 UV-I 0,1 C 56 % 88 % 2 % 1015,7 hPa 0,0 l/m 12,0 km/h (2 Bft) 0,00 h 0,00 h 12,4 km/h (3 Bft)
26.02.2011 12:00 13,0 C 8,0 C 0,0 UV-I 0,5 C 56 % 85 % 16 % 1014,3 hPa 0,0 l/m 13,1 km/h (3 Bft) 0,00 h 0,00 h 14,9 km/h (3 Bft)
26.02.2011 13:00 13,6 C 9,7 C 0,0 UV-I 2,0 C 56 % 81 % 56 % 1013,4 hPa 0,0 l/m 12,0 km/h (2 Bft) 0,23 h 0,00 h 12,1 km/h (2 Bft)
26.02.2011 14:00 14,0 C 10,4 C 0,0 UV-I 0,5 C 54 % 75 % 13 % 1012,0 hPa 0,0 l/m 10,9 km/h (2 Bft) 0,00 h 0,00 h 12,7 km/h (3 Bft)
26.02.2011 15:00 13,8 C 9,8 C 0,0 UV-I 0,0 C 55 % 77 % 0 % 1011,1 hPa 0,2 l/m 10,2 km/h (2 Bft) 0,00 h 0,00 h 11,9 km/h (2 Bft)
26.02.2011 16:00 13,6 C 8,3 C 0,0 UV-I 0,0 C 56 % 85 % 0 % 1010,4 hPa 1,5 l/m 6,5 km/h (2 Bft) 0,00 h 0,00 h 8,0 km/h (2 Bft)
26.02.2011 17:00 13,4 C 7,8 C 0,0 UV-I 0,0 C 59 % 89 % 0 % 1009,7 hPa 1,1 l/m 8,9 km/h (2 Bft) 0,00 h 0,00 h 9,7 km/h (2 Bft)
26.02.2011 18:00 13,2 C 7,5 C 0,0 UV-I 0,0 C 60 % 91 % 0 % 1009,2 hPa 0,7 l/m 8,5 km/h (2 Bft) 0,00 h 0,00 h 9,3 km/h (2 Bft)
26.02.2011 19:00 13,2 C 7,5 C 0,0 UV-I 0,0 C 61 % 92 % 0 % 1009,3 hPa 0,0 l/m 4,7 km/h (1 Bft) 0,00 h 0,00 h 5,1 km/h (1 Bft)
26.02.2011 20:00 13,2 C 7,5 C 0,0 UV-I 0,0 C 61 % 92 % 0 % 1009,3 hPa 0,1 l/m 6,9 km/h (2 Bft) 0,00 h 0,00 h 8,7 km/h (2 Bft)
26.02.2011 21:00 13,1 C 7,1 C 0,0 UV-I 0,0 C 61 % 91 % 0 % 1009,7 hPa 0,0 l/m 7,0 km/h (2 Bft) 0,00 h 0,00 h 7,1 km/h (2 Bft)
26.02.2011 22:00 13,0 C 6,8 C 0,0 UV-I 0,0 C 60 % 91 % 0 % 1009,8 hPa 0,0 l/m 6,7 km/h (2 Bft) 0,00 h 0,00 h 7,5 km/h (2 Bft)
26.02.2011 23:00 13,0 C 6,5 C 0,0 UV-I 0,0 C 60 % 91 % 0 % 1009,8 hPa 0,0 l/m 5,7 km/h (1 Bft) 0,00 h 0,00 h 6,7 km/h (2 Bft)
27.02.2011 00:00 13,0 C 6,5 C 0,0 UV-I 0,0 C 60 % 92 % 0 % 1009,9 hPa 0,0 l/m 5,5 km/h (1 Bft) 0,00 h 0,00 h 6,6 km/h (2 Bft)
27.02.2011 01:00 13,0 C 6,4 C 0,0 UV-I 0,0 C 60 % 92 % 0 % 1010,0 hPa 0,0 l/m 5,3 km/h (1 Bft) 0,00 h 0,00 h 7,7 km/h (2 Bft)
27.02.2011 02:00 12,9 C 6,2 C 0,0 UV-I 0,0 C 60 % 93 % 0 % 1009,9 hPa 0,0 l/m 5,9 km/h (2 Bft) 0,00 h 0,00 h 8,1 km/h (2 Bft)
27.02.2011 03:00 12,8 C 6,1 C 0,0 UV-I 0,0 C 60 % 93 % 0 % 1009,7 hPa 0,1 l/m 6,6 km/h (2 Bft) 0,00 h 0,00 h 9,0 km/h (2 Bft)
27.02.2011 04:00 12,8 C 6,0 C 0,0 UV-I 0,0 C 60 % 93 % 0 % 1009,8 hPa 0,1 l/m 7,4 km/h (2 Bft) 0,00 h 0,00 h 8,5 km/h (2 Bft)
27.02.2011 05:00 12,8 C 5,9 C 0,0 UV-I 0,0 C 60 % 93 % 0 % 1009,9 hPa 0,1 l/m 7,1 km/h (2 Bft) 0,00 h 0,00 h 8,7 km/h (2 Bft)
27.02.2011 06:00 12,8 C 5,9 C 0,0 UV-I 0,0 C 60 % 94 % 0 % 1009,9 hPa 0,3 l/m 5,4 km/h (1 Bft) 0,00 h 0,00 h 6,1 km/h (2 Bft)
27.02.2011 07:00 12,8 C 6,0 C 0,0 UV-I 0,0 C 60 % 94 % 0 % 1010,1 hPa 0,3 l/m 8,9 km/h (2 Bft) 0,00 h 0,00 h 9,7 km/h (2 Bft)
27.02.2011 08:00 12,8 C 5,7 C 0,0 UV-I 0,0 C 60 % 93 % 0 % 1010,8 hPa 0,7 l/m 9,9 km/h (2 Bft) 0,00 h 0,00 h 13,2 km/h (3 Bft)
27.02.2011 09:00 12,7 C 5,5 C 0,0 UV-I 0,0 C 60 % 93 % 0 % 1011,2 hPa 0,2 l/m 11,8 km/h (2 Bft) 0,00 h 0,00 h 14,5 km/h (3 Bft)
27.02.2011 10:00 12,7 C 5,5 C 0,0 UV-I 0,0 C 59 % 92 % 0 % 1011,4 hPa 0,1 l/m 11,3 km/h (2 Bft) 0,00 h 0,00 h 12,8 km/h (3 Bft)
27.02.2011 11:00 12,7 C 5,6 C 0,0 UV-I 0,0 C 59 % 92 % 0 % 1011,7 hPa 0,3 l/m 12,3 km/h (3 Bft) 0,00 h 0,00 h 13,2 km/h (3 Bft)
27.02.2011 12:00 12,8 C 5,6 C 0,0 UV-I 0,0 C 58 % 91 % 0 % 1012,2 hPa 0,2 l/m 13,8 km/h (3 Bft) 0,00 h 0,00 h 15,5 km/h (3 Bft)
27.02.2011 13:00 12,8 C 5,8 C 0,0 UV-I 0,0 C 58 % 91 % 0 % 1012,6 hPa 0,2 l/m 12,5 km/h (3 Bft) 0,00 h 0,00 h 14,8 km/h (3 Bft)
27.02.2011 14:00 13,1 C 6,0 C 0,0 UV-I 0,0 C 57 % 89 % 0 % 1012,9 hPa 0,2 l/m 14,6 km/h (3 Bft) 0,00 h 0,00 h 16,9 km/h (3 Bft)
27.02.2011 15:00 13,1 C 5,6 C 0,0 UV-I 0,0 C 56 % 90 % 0 % 1013,0 hPa 0,7 l/m 12,1 km/h (2 Bft) 0,00 h 0,00 h 13,1 km/h (3 Bft)
27.02.2011 16:00 12,9 C 5,0 C 0,0 UV-I 0,0 C 57 % 91 % 0 % 1013,1 hPa 1,2 l/m 13,0 km/h (3 Bft) 0,00 h 0,00 h 14,5 km/h (3 Bft)
27.02.2011 17:00 12,5 C 4,4 C 0,0 UV-I 0,0 C 57 % 92 % 0 % 1013,4 hPa 1,3 l/m 13,0 km/h (3 Bft) 0,00 h 0,00 h 13,5 km/h (3 Bft)
27.02.2011 18:00 12,2 C 4,4 C 0,0 UV-I 0,0 C 58 % 92 % 0 % 1014,0 hPa 0,4 l/m 12,2 km/h (2 Bft) 0,00 h 0,00 h 12,9 km/h (3 Bft)
27.02.2011 19:00 12,1 C 4,1 C 0,0 UV-I 0,0 C 58 % 92 % 0 % 1014,7 hPa 0,5 l/m 9,8 km/h (2 Bft) 0,00 h 0,00 h 10,9 km/h (2 Bft)
27.02.2011 20:00 12,1 C 4,0 C 0,0 UV-I 0,0 C 58 % 92 % 0 % 1015,3 hPa 0,7 l/m 8,0 km/h (2 Bft) 0,00 h 0,00 h 8,3 km/h (2 Bft)
27.02.2011 21:00 12,1 C 3,9 C 0,0 UV-I 0,0 C 58 % 93 % 0 % 1015,9 hPa 0,8 l/m 5,8 km/h (2 Bft) 0,00 h 0,00 h 7,0 km/h (2 Bft)
27.02.2011 22:00 12,1 C 3,6 C 0,0 UV-I 0,0 C 58 % 93 % 0 % 1016,4 hPa 0,7 l/m 2,6 km/h (1 Bft) 0,00 h 0,00 h 2,7 km/h (1 Bft)
27.02.2011 23:00 12,2 C 3,1 C 0,0 UV-I 0,0 C 58 % 93 % 0 % 1016,9 hPa 0,0 l/m 1,2 km/h (1 Bft) 0,00 h 0,00 h 2,1 km/h (1 Bft)
Min-Datum _ 22.02.11 22.02.11 21.02.11 21.02.11 22.02.11 22.02.11 21.02.11 26.02.11 - 21.02.11 - - 21.02.11
_ Min-Zeit 07:38 07:14 00:00 00:00 15:20 15:26 00:00 18:06 - 18:58 - - 01:28
Minimum _ 10,4 C -5,7 C 0,0 UV-I 0,0 C 31 % 45 % 0 % 1009,1 hPa - 0,0 km/h (0 Bft) - - 0,0 km/h (0 Bft)
Max-Datum _ 21.02.11 26.02.11 21.02.11 22.02.11 26.02.11 25.02.11 21.02.11 25.02.11 26.02.11 27.02.11 21.02.11 21.02.11 27.02.11
_ Max-Zeit 15:58 14:50 00:00 12:16 19:00 13:00 09:30 08:46 16:32 14:28 09:10 00:00 16:36
Maximum _ 16,4 C 10,7 C 0,0 UV-I 8,0 C 61 % 96 % 100 % 1028,4 hPa 1,5 l/m 17,3 km/h
S (3 Bft)
0,03 h 0,00 h 44,1 km/h
S (6 Bft)
Durchschnitt _ 12,1 C 2,6 C 0,0 UV-I 0,6 C 48 % 80 % 11 % 1019,3 hPa #18,9 l/m 7,0 km/h (2 Bft) #15:42 h #0 min. 7,9 km/h (2 Bft)
© 2012 W. Hausmann